Zprávy METAR z letišť v České republice

LKPR - Praha Ruzyně, Česká republika
Aktualizováno: 24.06.2018 16:00
 
Teplota vzduchu: 16°C
Vítr: SZ 20 km/h
Rosný bod: 6°C
Vlhkost vzduchu: 52%
Tlak vzduchu: 1019 hPa
Oblačnost: oblačno
Viditelnost: 10 km
Detaily oblačnosti: oblačno 1372 m
2018/06/24 14:00 LKPR 241400Z 32011KT 290V360 9999 SCT045 16/06 Q1019 NOSIG
LKTB - Brno Tuřany, Česká republika
Aktualizováno: 24.06.2018 16:00
 
Teplota vzduchu: 17°C
Vítr: SSZ 15 km/h
Rosný bod: 6°C
Vlhkost vzduchu: 49%
Tlak vzduchu: 1018 hPa
Oblačnost: skoro jasno
Viditelnost: 10 km
Detaily oblačnosti: skoro jasno 1494 m
2018/06/24 14:00 LKTB 241400Z 33008KT 9999 FEW049 17/06 Q1018 NOSIG
 
LKKV - Karlovy Vary, Česká republika
Aktualizováno: 24.06.2018 16:00
 
Teplota vzduchu: 12°C
Vítr: Z 11 km/h
Rosný bod: 7°C
Vlhkost vzduchu: 72%
Tlak vzduchu: 1020 hPa
Stav počasí: mírnější déšť
Oblačnost: skoro jasno
Viditelnost: 10 km
Detaily oblačnosti: skoro jasno 1006 m
2018/06/24 14:00 LKKV 241400Z 27006KT 240V310 9999 -RA FEW033 12/07 Q1020
LKMT - Ostrava Mošnov, Česká republika
Aktualizováno: 24.06.2018 16:00
 
Teplota vzduchu: 15°C
Vítr: V 9 km/h
Rosný bod: 12°C
Vlhkost vzduchu: 82%
Tlak vzduchu: 1017 hPa
Stav počasí: Mírnější déšť, Přeháňky
Oblačnost: skoro zataženo
Viditelnost: 10 km
Detaily oblačnosti: skoro zataženo 701 m
2018/06/24 14:00 LKMT 241400Z 08005KT 040V110 9999 -SHRA BKN023TCU 15/12 Q1017 NOSIG
 
LKPD - Pardubice, Česká republika
Aktualizováno: 24.06.2018 16:00
 
Teplota vzduchu: 16°C
Vítr: ZSZ 24 km/h
Rosný bod: 7°C
Vlhkost vzduchu: 55%
Tlak vzduchu: 1018 hPa
Oblačnost: skoro zataženo
Viditelnost: 10 km
Detaily oblačnosti: skoro zataženo 914 m
skoro zataženo 1524 m
2018/06/24 14:00 LKPD 241400Z 30013KT 9999 BKN030 BKN050 16/07 Q1018 NOSIG RMK BLU BLU
LKKB - Praha Kbely, Česká republika
Aktualizováno: 24.06.2018 16:00
 
Vítr: SZ 13 km/h
Oblačnost: skoro zataženo
Viditelnost: 10 km
Detaily oblačnosti: oblačno 1402 m
skoro zataženo 1524 m
2018/06/24 14:00 LKKB 241400Z 32007KT 270V020 9999 SCT046 BKN050 BKN59 17/06 Q1019 NOSIG
 
LKCV - Čáslav, Česká republika
Aktualizováno: 24.06.2018 16:00
 
Teplota vzduchu: 16°C
Vítr: SSZ 20 km/h
Rosný bod: 7°C
Vlhkost vzduchu: 55%
Tlak vzduchu: 1018 hPa
Oblačnost: skoro zataženo
Viditelnost: 10 km
Detaily oblačnosti: skoro jasno 1036 m
skoro zataženo 1524 m
2018/06/24 14:00 LKCV 241400Z 33011KT 9999 FEW034 BKN050 16/07 Q1018 NOSIG RMK BLU BLU
LKNA - Náměšť n. Osl., Česká republika
Aktualizováno: 24.06.2018 16:00
 
Teplota vzduchu: 16°C
Vítr: SZ 19 km/h
Rosný bod: 6°C
Vlhkost vzduchu: 52%
Tlak vzduchu: 1018 hPa
Oblačnost: skoro zataženo
Viditelnost: 10 km
Detaily oblačnosti: oblačno 1341 m
skoro zataženo 1768 m
2018/06/24 14:00 LKNA 241400Z 31010KT 270V360 9999 SCT044 BKN058 16/06 Q1018 NOSIG RMK BLU BLU
 
LKLN - Plzeň Líně, Česká republika
Aktualizováno: 24.06.2018 16:00
 
Teplota vzduchu: 18°C
Vítr: SZ 9 km/h
Rosný bod: 7°C
Vlhkost vzduchu: 49%
Tlak vzduchu: 1020 hPa
Oblačnost: zataženo
Viditelnost: 10 km
Detaily oblačnosti: zataženo 2225 m
2018/06/24 14:00 LKLN 241400Z AUTO 31005KT 240V040 9999 OVC073 18/07 Q1020
LKVO - Vodochody, Česká republika
Aktualizováno: 23.06.2018 11:00
Není aktuální
 
Teplota vzduchu: 16°C
Vítr: ZSZ 30 km/h
Rosný bod: 4°C
Vlhkost vzduchu: 45%
Tlak vzduchu: 1021 hPa
Oblačnost: oblačno
Viditelnost: 10 km
Detaily oblačnosti: oblačno 1189 m
2018/06/23 09:00 LKVO 230900Z 29016KT 9999 SCT039 16/04 Q1021

Metar display script od Saratoga-Weather.org
upravil a přeložil Miloš Jiřík